createdAt,value
2017-02-12T00:00:43.235Z,1015.5
2017-02-12T00:01:43.203Z,1015.51
2017-02-12T00:02:43.177Z,1015.5
2017-02-12T00:03:43.152Z,1015.51
2017-02-12T00:04:43.126Z,1015.5
2017-02-12T00:05:43.090Z,1015.53
2017-02-12T00:06:43.067Z,1015.51
2017-02-12T00:07:43.041Z,1015.59
2017-02-12T00:08:43.022Z,1015.52
2017-02-12T00:09:42.992Z,1015.53
2017-02-12T00:10:42.959Z,1015.44
2017-02-12T00:11:42.929Z,1015.46
2017-02-12T00:12:43.005Z,1015.46
2017-02-12T00:13:42.888Z,1015.49
2017-02-12T00:14:42.888Z,1015.51
2017-02-12T00:15:42.828Z,1015.49
2017-02-12T00:16:42.800Z,1015.57
2017-02-12T00:17:42.765Z,1015.66
2017-02-12T00:18:42.744Z,1015.66
2017-02-12T00:19:42.715Z,1015.62
2017-02-12T00:20:42.765Z,1015.72
2017-02-12T00:21:42.657Z,1015.74
2017-02-12T00:22:42.635Z,1015.68
2017-02-12T00:23:42.602Z,1015.64
2017-02-12T00:24:42.573Z,1015.6
2017-02-12T00:25:42.548Z,1015.57
2017-02-12T00:26:42.523Z,1015.6
2017-02-12T00:27:42.499Z,1015.61
2017-02-12T00:28:42.469Z,1015.59
2017-02-12T00:29:42.440Z,1015.59
2017-02-12T00:30:42.410Z,1015.53
2017-02-12T00:31:42.394Z,1015.55
2017-02-12T00:32:42.363Z,1015.52
2017-02-12T00:33:42.328Z,1015.57
2017-02-12T00:34:42.305Z,1015.58
2017-02-12T00:35:42.287Z,1015.55
2017-02-12T00:36:42.246Z,1015.64
2017-02-12T00:37:42.221Z,1015.63
2017-02-12T00:38:42.199Z,1015.66
2017-02-12T00:39:42.164Z,1015.67
2017-02-12T00:40:42.143Z,1015.67
2017-02-12T00:41:42.110Z,1015.76
2017-02-12T00:42:42.083Z,1015.73
2017-02-12T00:43:42.055Z,1015.71
2017-02-12T00:44:42.026Z,1015.73
2017-02-12T00:45:42.001Z,1015.62
2017-02-12T00:46:41.976Z,1015.69
2017-02-12T00:47:41.950Z,1015.69
2017-02-12T00:48:41.928Z,1015.68
2017-02-12T00:49:41.893Z,1015.76
2017-02-12T00:50:41.867Z,1015.73
2017-02-12T00:51:41.838Z,1015.71
2017-02-12T00:52:41.810Z,1015.77
2017-02-12T00:53:41.784Z,1015.7
2017-02-12T00:54:41.766Z,1015.64
2017-02-12T00:55:41.736Z,1015.69
2017-02-12T00:56:41.705Z,1015.64
2017-02-12T00:57:41.677Z,1015.59
2017-02-12T00:58:41.652Z,1015.66
2017-02-12T00:59:41.618Z,1015.7
2017-02-12T01:00:41.592Z,1015.78
2017-02-12T01:01:41.570Z,1015.83
2017-02-12T01:02:41.539Z,1015.8
2017-02-12T01:03:41.511Z,1015.85
2017-02-12T01:04:41.485Z,1015.82
2017-02-12T01:05:41.460Z,1015.83
2017-02-12T01:06:41.430Z,1015.87
2017-02-12T01:07:41.407Z,1015.83
2017-02-12T01:08:41.375Z,1015.82
2017-02-12T01:09:41.348Z,1015.78
2017-02-12T01:10:41.326Z,1015.75
2017-02-12T01:11:41.293Z,1015.78
2017-02-12T01:12:41.267Z,1015.76
2017-02-12T01:13:41.238Z,1015.78
2017-02-12T01:14:41.216Z,1015.76
2017-02-12T01:15:41.186Z,1015.77
2017-02-12T01:16:41.157Z,1015.77
2017-02-12T01:17:41.179Z,1015.77
2017-02-12T01:18:41.103Z,1015.8
2017-02-12T01:19:41.081Z,1015.8
2017-02-12T01:20:41.049Z,1015.84
2017-02-12T01:21:41.028Z,1015.89
2017-02-12T01:22:40.998Z,1015.89
2017-02-12T01:23:41.097Z,1015.91
2017-02-12T01:24:40.940Z,1015.92
2017-02-12T01:25:40.915Z,1016.02
2017-02-12T01:26:40.888Z,1015.98
2017-02-12T01:27:40.870Z,1015.9
2017-02-12T01:28:40.839Z,1015.98
2017-02-12T01:29:40.809Z,1015.98
2017-02-12T01:30:40.778Z,1015.97
2017-02-12T01:31:40.756Z,1016.04
2017-02-12T01:32:40.726Z,1016.06
2017-02-12T01:33:40.706Z,1016.04
2017-02-12T01:34:40.676Z,1016.07
2017-02-12T01:35:40.642Z,1016.12
2017-02-12T01:36:40.620Z,1016.08
2017-02-12T01:37:40.595Z,1016.05
2017-02-12T01:38:40.564Z,1016.06
2017-02-12T01:39:40.542Z,1016.03
2017-02-12T01:40:40.519Z,1016.03
2017-02-12T01:41:40.481Z,1015.96
2017-02-12T01:42:40.460Z,1015.93
2017-02-12T01:43:40.427Z,1015.95
2017-02-12T01:44:40.399Z,1015.91
2017-02-12T01:45:40.374Z,1015.84
2017-02-12T01:46:40.355Z,1015.89
2017-02-12T01:47:40.331Z,1015.89
2017-02-12T01:48:40.293Z,1015.88
2017-02-12T01:49:40.269Z,1015.85
2017-02-12T01:50:40.241Z,1015.84
2017-02-12T01:51:40.216Z,1015.8
2017-02-12T01:52:40.194Z,1015.77
2017-02-12T01:53:40.157Z,1015.84
2017-02-12T01:54:40.133Z,1015.83
2017-02-12T01:55:40.103Z,1015.86
2017-02-12T01:56:40.083Z,1015.89
2017-02-12T01:57:40.051Z,1015.93
2017-02-12T01:58:40.032Z,1015.94
2017-02-12T01:59:40.001Z,1015.97
2017-02-12T02:00:39.972Z,1016
2017-02-12T02:01:39.943Z,1016.04
2017-02-12T02:02:39.911Z,1016.02
2017-02-12T02:03:39.891Z,1016.02
2017-02-12T02:04:39.859Z,1016.04
2017-02-12T02:05:39.840Z,1016.07
2017-02-12T02:06:39.808Z,1016.09
2017-02-12T02:07:39.779Z,1016.06
2017-02-12T02:08:39.757Z,1016.02
2017-02-12T02:09:39.726Z,1016.05
2017-02-12T02:10:39.708Z,1016.06
2017-02-12T02:11:39.669Z,1016.11
2017-02-12T02:12:39.646Z,1016.1
2017-02-12T02:13:39.614Z,1016.13
2017-02-12T02:14:39.590Z,1016.12
2017-02-12T02:15:39.559Z,1016.08
2017-02-12T02:16:39.534Z,1016.1
2017-02-12T02:17:39.505Z,1016.14
2017-02-12T02:18:39.481Z,1016.2
2017-02-12T02:19:39.452Z,1016.15
2017-02-12T02:20:39.432Z,1016.17
2017-02-12T02:21:39.401Z,1016.2
2017-02-12T02:22:39.377Z,1016.19
2017-02-12T02:23:39.349Z,1016.19
2017-02-12T02:24:39.318Z,1016.2
2017-02-12T02:25:39.289Z,1016.16
2017-02-12T02:26:39.266Z,1016.2
2017-02-12T02:27:39.237Z,1016.19
2017-02-12T02:28:39.217Z,1016.18
2017-02-12T02:29:39.187Z,1016.14
2017-02-12T02:30:39.160Z,1016.16
2017-02-12T02:31:39.133Z,1016.18
2017-02-12T02:32:39.100Z,1016.16
2017-02-12T02:33:39.074Z,1016.21
2017-02-12T02:34:39.049Z,1016.22
2017-02-12T02:35:39.019Z,1016.2
2017-02-12T02:36:39.003Z,1016.22
2017-02-12T02:37:38.972Z,1016.27
2017-02-12T02:38:38.943Z,1016.29
2017-02-12T02:39:38.912Z,1016.24
2017-02-12T02:40:38.891Z,1016.27
2017-02-12T02:41:38.859Z,1016.27
2017-02-12T02:42:38.833Z,1016.3
2017-02-12T02:43:38.809Z,1016.26
2017-02-12T02:44:38.778Z,1016.26
2017-02-12T02:45:38.757Z,1016.25
2017-02-12T02:46:38.727Z,1016.23
2017-02-12T02:47:38.697Z,1016.28
2017-02-12T02:48:38.676Z,1016.29
2017-02-12T02:49:38.656Z,1016.24
2017-02-12T02:50:38.617Z,1016.25
2017-02-12T02:51:38.589Z,1016.29
2017-02-12T02:52:38.562Z,1016.26
2017-02-12T02:53:38.545Z,1016.24
2017-02-12T02:54:38.513Z,1016.32
2017-02-12T02:55:38.482Z,1016.33
2017-02-12T02:56:38.458Z,1016.35
2017-02-12T02:57:38.432Z,1016.38
2017-02-12T02:58:38.402Z,1016.41
2017-02-12T02:59:38.382Z,1016.43
2017-02-12T03:00:38.350Z,1016.48
2017-02-12T03:01:38.319Z,1016.47
2017-02-12T03:02:38.294Z,1016.42
2017-02-12T03:03:38.268Z,1016.42
2017-02-12T03:04:38.237Z,1016.42
2017-02-12T03:05:38.213Z,1016.4
2017-02-12T03:06:38.187Z,1016.41
2017-02-12T03:07:38.170Z,1016.41
2017-02-12T03:08:38.131Z,1016.48
2017-02-12T03:09:38.103Z,1016.42
2017-02-12T03:10:38.078Z,1016.35
2017-02-12T03:11:38.055Z,1016.4
2017-02-12T03:12:38.024Z,1016.38
2017-02-12T03:13:38.001Z,1016.34
2017-02-12T03:14:37.969Z,1016.38
2017-02-12T03:15:37.942Z,1016.38
2017-02-12T03:16:37.915Z,1016.3
2017-02-12T03:17:37.890Z,1016.4
2017-02-12T03:18:37.862Z,1016.42
2017-02-12T03:19:37.832Z,1016.49
2017-02-12T03:20:37.807Z,1016.46
2017-02-12T03:21:37.781Z,1016.52
2017-02-12T03:22:37.760Z,1016.57
2017-02-12T03:23:37.730Z,1016.56
2017-02-12T03:24:37.699Z,1016.58
2017-02-12T03:25:37.675Z,1016.6
2017-02-12T03:26:37.643Z,1016.57
2017-02-12T03:27:37.615Z,1016.61
2017-02-12T03:28:37.590Z,1016.59
2017-02-12T03:29:37.561Z,1016.58
2017-02-12T03:30:37.535Z,1016.55
2017-02-12T03:31:37.515Z,1016.56
2017-02-12T03:32:37.480Z,1016.58
2017-02-12T03:33:37.454Z,1016.54
2017-02-12T03:34:37.430Z,1016.58
2017-02-12T03:35:37.399Z,1016.66
2017-02-12T03:36:37.372Z,1016.67
2017-02-12T03:37:37.353Z,1016.61
2017-02-12T03:38:37.316Z,1016.62
2017-02-12T03:39:37.291Z,1016.67
2017-02-12T03:40:37.261Z,1016.64
2017-02-12T03:41:37.238Z,1016.55
2017-02-12T03:42:37.208Z,1016.59
2017-02-12T03:43:37.182Z,1016.56
2017-02-12T03:44:37.155Z,1016.56
2017-02-12T03:45:37.125Z,1016.56
2017-02-12T03:46:37.108Z,1016.56
2017-02-12T03:47:37.073Z,1016.53
2017-02-12T03:48:37.046Z,1016.55
2017-02-12T03:49:37.019Z,1016.57
2017-02-12T03:50:36.993Z,1016.56
2017-02-12T03:51:36.962Z,1016.55
2017-02-12T03:52:36.939Z,1016.54
2017-02-12T03:53:36.913Z,1016.62
2017-02-12T03:54:36.883Z,1016.55
2017-02-12T03:55:36.857Z,1016.64
2017-02-12T03:56:36.830Z,1016.64
2017-02-12T03:57:36.804Z,1016.63
2017-02-12T03:58:36.780Z,1016.61
2017-02-12T03:59:36.748Z,1016.61
2017-02-12T04:00:36.727Z,1016.6
2017-02-12T04:01:36.696Z,1016.66
2017-02-12T04:02:36.668Z,1016.63
2017-02-12T04:03:36.646Z,1016.67
2017-02-12T04:04:36.612Z,1016.72
2017-02-12T04:05:36.584Z,1016.68
2017-02-12T04:06:36.558Z,1016.71
2017-02-12T04:07:36.531Z,1016.67
2017-02-12T04:08:36.503Z,1016.68
2017-02-12T04:09:36.477Z,1016.61
2017-02-12T04:10:36.448Z,1016.66
2017-02-12T04:11:36.423Z,1016.65
2017-02-12T04:12:36.391Z,1016.71
2017-02-12T04:13:36.367Z,1016.84
2017-02-12T04:14:36.341Z,1016.89
2017-02-12T04:15:36.311Z,1016.93
2017-02-12T04:16:36.284Z,1016.97
2017-02-12T04:17:36.254Z,1016.93
2017-02-12T04:18:36.229Z,1016.89
2017-02-12T04:19:36.199Z,1016.86
2017-02-12T04:20:36.178Z,1016.9
2017-02-12T04:21:36.146Z,1016.93
2017-02-12T04:22:36.117Z,1016.85
2017-02-12T04:23:36.091Z,1016.9
2017-02-12T04:24:36.062Z,1016.89
2017-02-12T04:25:36.039Z,1016.89
2017-02-12T04:26:36.013Z,1016.84
2017-02-12T04:27:35.985Z,1016.86
2017-02-12T04:28:35.954Z,1016.9
2017-02-12T04:29:35.924Z,1016.95
2017-02-12T04:30:35.903Z,1016.94
2017-02-12T04:31:35.872Z,1016.97
2017-02-12T04:32:35.843Z,1016.96
2017-02-12T04:33:35.815Z,1017
2017-02-12T04:34:35.787Z,1017.02
2017-02-12T04:35:35.761Z,1017.01
2017-02-12T04:36:35.733Z,1017
2017-02-12T04:37:35.708Z,1017.02
2017-02-12T04:38:35.678Z,1017.04
2017-02-12T04:39:35.647Z,1017.03
2017-02-12T04:40:35.621Z,1017.05
2017-02-12T04:41:35.593Z,1017.05
2017-02-12T04:42:35.566Z,1017.06
2017-02-12T04:43:35.544Z,1017.03
2017-02-12T04:44:35.509Z,1017.05
2017-02-12T04:45:35.480Z,1017.03
2017-02-12T04:46:35.454Z,1017.09
2017-02-12T04:47:35.426Z,1017.08
2017-02-12T04:48:35.400Z,1017.06
2017-02-12T04:49:35.373Z,1017.06
2017-02-12T04:50:35.347Z,1017.13
2017-02-12T04:51:35.322Z,1017.11
2017-02-12T04:52:35.289Z,1017.19
2017-02-12T04:53:35.271Z,1017.17
2017-02-12T04:54:35.240Z,1017.19
2017-02-12T04:55:35.205Z,1017.18
2017-02-12T04:56:35.179Z,1017.23
2017-02-12T04:57:35.149Z,1017.25
2017-02-12T04:58:35.127Z,1017.25
2017-02-12T04:59:35.098Z,1017.28
2017-02-12T05:00:35.069Z,1017.28
2017-02-12T05:01:35.040Z,1017.28
2017-02-12T05:02:35.016Z,1017.33
2017-02-12T05:03:34.986Z,1017.29
2017-02-12T05:04:34.965Z,1017.36
2017-02-12T05:05:34.935Z,1017.35
2017-02-12T05:06:34.905Z,1017.34
2017-02-12T05:07:34.928Z,1017.33
2017-02-12T05:08:34.847Z,1017.29
2017-02-12T05:09:34.824Z,1017.31
2017-02-12T05:10:34.795Z,1017.31
2017-02-12T05:11:34.765Z,1017.31
2017-02-12T05:12:34.742Z,1017.32
2017-02-12T05:13:34.719Z,1017.29
2017-02-12T05:14:34.689Z,1017.34
2017-02-12T05:15:34.709Z,1017.35
2017-02-12T05:16:34.632Z,1017.29
2017-02-12T05:17:34.705Z,1017.36
2017-02-12T05:18:34.574Z,1017.35
2017-02-12T05:19:34.601Z,1017.32
2017-02-12T05:20:34.523Z,1017.34
2017-02-12T05:21:34.491Z,1017.29
2017-02-12T05:22:34.466Z,1017.31
2017-02-12T05:23:34.529Z,1017.31
2017-02-12T05:24:34.416Z,1017.24
2017-02-12T05:25:34.385Z,1017.3
2017-02-12T05:26:34.354Z,1017.33
2017-02-12T05:27:34.330Z,1017.38
2017-02-12T05:28:34.302Z,1017.41
2017-02-12T05:29:34.273Z,1017.41
2017-02-12T05:30:34.246Z,1017.4
2017-02-12T05:31:34.216Z,1017.41
2017-02-12T05:32:34.190Z,1017.35
2017-02-12T05:33:34.170Z,1017.38
2017-02-12T05:34:34.139Z,1017.42
2017-02-12T05:35:34.109Z,1017.5
2017-02-12T05:36:34.087Z,1017.56
2017-02-12T05:37:34.051Z,1017.55
2017-02-12T05:38:34.027Z,1017.6
2017-02-12T05:39:34.007Z,1017.61
2017-02-12T05:40:33.977Z,1017.64
2017-02-12T05:41:33.946Z,1017.63
2017-02-12T05:42:33.915Z,1017.67
2017-02-12T05:43:33.894Z,1017.66
2017-02-12T05:44:33.864Z,1017.7
2017-02-12T05:45:33.832Z,1017.73
2017-02-12T05:46:33.812Z,1017.77
2017-02-12T05:47:33.776Z,1017.85
2017-02-12T05:48:33.752Z,1017.9
2017-02-12T05:49:33.731Z,1017.88
2017-02-12T05:50:33.701Z,1017.94
2017-02-12T05:51:33.670Z,1017.95
2017-02-12T05:52:33.639Z,1017.97
2017-02-12T05:53:33.620Z,1017.99
2017-02-12T05:54:33.590Z,1017.99
2017-02-12T05:55:33.559Z,1017.97
2017-02-12T05:56:33.538Z,1017.97
2017-02-12T05:57:33.507Z,1018.05
2017-02-12T05:58:33.477Z,1018.11
2017-02-12T05:59:33.447Z,1018.1
2017-02-12T06:00:33.419Z,1018.23
2017-02-12T06:01:33.397Z,1018.14
2017-02-12T06:02:33.366Z,1018.08
2017-02-12T06:03:33.346Z,1018.09
2017-02-12T06:04:33.316Z,1018.08
2017-02-12T06:05:33.282Z,1018.16
2017-02-12T06:06:33.255Z,1018.05
2017-02-12T06:07:33.233Z,1018.12
2017-02-12T06:08:33.199Z,1018.14
2017-02-12T06:09:33.170Z,1018.12
2017-02-12T06:10:33.201Z,1018.17
2017-02-12T06:11:33.117Z,1018.14
2017-02-12T06:12:33.093Z,1018.08
2017-02-12T06:13:33.063Z,1018.06
2017-02-12T06:14:33.039Z,1018
2017-02-12T06:15:33.009Z,1017.94
2017-02-12T06:16:33.039Z,1017.88
2017-02-12T06:17:32.948Z,1017.8
2017-02-12T06:18:32.925Z,1017.72
2017-02-12T06:19:32.895Z,1017.68
2017-02-12T06:20:32.881Z,1017.51
2017-02-12T06:21:32.840Z,1017.64
2017-02-12T06:22:32.814Z,1017.8
2017-02-12T06:23:32.783Z,1017.82
2017-02-12T06:24:32.757Z,1017.9
2017-02-12T06:25:32.735Z,1017.97
2017-02-12T06:26:32.700Z,1018.02
2017-02-12T06:27:32.669Z,1017.96
2017-02-12T06:28:32.650Z,1017.94
2017-02-12T06:29:32.618Z,1018.02
2017-02-12T06:30:32.589Z,1017.95
2017-02-12T06:31:32.560Z,1018.01
2017-02-12T06:32:32.536Z,1018.03
2017-02-12T06:33:32.517Z,1018.06
2017-02-12T06:34:32.477Z,1018.09
2017-02-12T06:35:32.453Z,1018.11
2017-02-12T06:36:32.428Z,1018.15
2017-02-12T06:37:32.396Z,1018.12
2017-02-12T06:38:32.365Z,1018.14
2017-02-12T06:39:32.352Z,1018.2
2017-02-12T06:40:32.312Z,1018.24
2017-02-12T06:41:32.283Z,1018.22
2017-02-12T06:42:32.265Z,1018.27
2017-02-12T06:43:32.233Z,1018.24
2017-02-12T06:44:32.201Z,1018.3
2017-02-12T06:45:32.180Z,1018.31
2017-02-12T06:46:32.141Z,1018.37
2017-02-12T06:47:32.117Z,1018.37
2017-02-12T06:48:32.090Z,1018.4
2017-02-12T06:49:32.063Z,1018.44
2017-02-12T06:50:32.038Z,1018.47
2017-02-12T06:51:32.005Z,1018.48
2017-02-12T06:52:31.982Z,1018.58
2017-02-12T06:53:31.955Z,1018.54
2017-02-12T06:54:31.926Z,1018.55
2017-02-12T06:55:31.896Z,1018.56
2017-02-12T06:56:31.867Z,1018.56
2017-02-12T06:57:31.845Z,1018.57
2017-02-12T06:58:31.814Z,1018.57
2017-02-12T06:59:31.789Z,1018.6
2017-02-12T07:00:31.756Z,1018.63
2017-02-12T07:01:31.732Z,1018.6
2017-02-12T07:02:31.702Z,1018.64
2017-02-12T07:03:31.675Z,1018.58
2017-02-12T07:04:31.646Z,1018.6
2017-02-12T07:05:31.621Z,1018.56
2017-02-12T07:06:31.594Z,1018.62
2017-02-12T07:07:31.568Z,1018.69
2017-02-12T07:08:31.539Z,1018.62
2017-02-12T07:09:31.511Z,1018.56
2017-02-12T07:10:31.529Z,1018.58
2017-02-12T07:11:31.505Z,1018.56
2017-02-12T07:12:31.429Z,1018.53
2017-02-12T07:13:31.400Z,1018.52
2017-02-12T07:14:31.376Z,1018.53
2017-02-12T07:15:31.346Z,1018.52
2017-02-12T07:16:31.315Z,1018.42
2017-02-12T07:17:31.295Z,1018.52
2017-02-12T07:18:31.262Z,1018.5
2017-02-12T07:19:31.234Z,1018.61
2017-02-12T07:20:31.213Z,1018.64
2017-02-12T07:21:31.182Z,1018.76
2017-02-12T07:22:31.152Z,1018.73
2017-02-12T07:23:31.131Z,1018.74
2017-02-12T07:24:31.095Z,1018.79
2017-02-12T07:25:31.067Z,1018.85
2017-02-12T07:26:31.040Z,1018.85
2017-02-12T07:27:31.018Z,1018.83
2017-02-12T07:28:30.989Z,1018.89
2017-02-12T07:29:30.959Z,1018.96
2017-02-12T07:30:30.935Z,1018.92
2017-02-12T07:31:30.905Z,1018.93
2017-02-12T07:32:30.877Z,1018.96
2017-02-12T07:33:30.846Z,1018.97
2017-02-12T07:34:30.823Z,1018.97
2017-02-12T07:35:30.793Z,1018.94
2017-02-12T07:36:30.782Z,1019.01
2017-02-12T07:37:30.745Z,1019
2017-02-12T07:38:30.712Z,1019.07
2017-02-12T07:39:30.684Z,1019.1
2017-02-12T07:40:30.663Z,1019.01
2017-02-12T07:41:30.629Z,1019.05
2017-02-12T07:42:30.601Z,1019.09
2017-02-12T07:43:30.574Z,1019.11
2017-02-12T07:44:30.545Z,1019.15
2017-02-12T07:45:30.520Z,1019.17
2017-02-12T07:46:30.489Z,1019.18
2017-02-12T07:47:30.464Z,1019.19
2017-02-12T07:48:30.438Z,1019.18
2017-02-12T07:49:30.413Z,1019.22
2017-02-12T07:50:30.389Z,1019.22
2017-02-12T07:51:30.364Z,1019.24
2017-02-12T07:52:30.328Z,1019.29
2017-02-12T07:53:30.309Z,1019.31
2017-02-12T07:54:30.276Z,1019.29
2017-02-12T07:55:30.268Z,1019.3
2017-02-12T07:56:30.227Z,1019.32
2017-02-12T07:57:30.195Z,1019.25
2017-02-12T07:58:30.172Z,1019.27
2017-02-12T07:59:30.146Z,1019.21
2017-02-12T08:00:30.116Z,1019.31
2017-02-12T08:01:30.095Z,1019.31
2017-02-12T08:02:30.064Z,1019.28
2017-02-12T08:03:30.043Z,1019.24
2017-02-12T08:04:30.016Z,1019.27
2017-02-12T08:05:29.983Z,1019.27
2017-02-12T08:06:29.955Z,1019.32
2017-02-12T08:07:29.930Z,1019.34
2017-02-12T08:08:29.898Z,1019.37
2017-02-12T08:09:29.870Z,1019.43
2017-02-12T08:10:29.840Z,1019.45
2017-02-12T08:11:29.819Z,1019.48
2017-02-12T08:12:29.789Z,1019.49
2017-02-12T08:13:29.767Z,1019.5
2017-02-12T08:14:29.737Z,1019.5
2017-02-12T08:15:29.709Z,1019.48
2017-02-12T08:16:29.679Z,1019.53
2017-02-12T08:17:29.657Z,1019.48
2017-02-12T08:18:29.635Z,1019.55
2017-02-12T08:19:29.603Z,1019.59
2017-02-12T08:20:29.574Z,1019.57
2017-02-12T08:21:29.550Z,1019.59
2017-02-12T08:22:29.530Z,1019.68
2017-02-12T08:23:29.493Z,1019.65
2017-02-12T08:24:29.469Z,1019.7
2017-02-12T08:25:29.442Z,1019.74
2017-02-12T08:26:29.451Z,1019.72
2017-02-12T08:27:29.391Z,1019.71
2017-02-12T08:28:29.370Z,1019.68
2017-02-12T08:29:29.332Z,1019.71
2017-02-12T08:30:29.309Z,1019.76
2017-02-12T08:31:29.290Z,1019.76
2017-02-12T08:32:29.251Z,1019.75
2017-02-12T08:33:29.228Z,1019.74
2017-02-12T08:34:29.199Z,1019.75
2017-02-12T08:35:29.172Z,1019.82
2017-02-12T08:36:29.154Z,1019.86
2017-02-12T08:37:29.119Z,1019.78
2017-02-12T08:38:29.091Z,1019.85
2017-02-12T08:39:29.073Z,1019.86
2017-02-12T08:40:29.042Z,1019.89
2017-02-12T08:41:29.014Z,1019.85
2017-02-12T08:42:28.991Z,1019.9
2017-02-12T08:43:28.960Z,1019.92
2017-02-12T08:44:28.941Z,1019.95
2017-02-12T08:45:28.907Z,1019.95
2017-02-12T08:46:28.882Z,1019.91
2017-02-12T08:47:28.858Z,1019.86
2017-02-12T08:48:28.827Z,1019.91
2017-02-12T08:49:28.801Z,1019.84
2017-02-12T08:50:28.776Z,1019.88
2017-02-12T08:51:28.755Z,1019.91
2017-02-12T08:52:28.722Z,1019.91
2017-02-12T08:53:28.692Z,1019.96
2017-02-12T08:54:28.674Z,1019.98
2017-02-12T08:55:28.644Z,1020.1
2017-02-12T08:56:28.622Z,1020.04
2017-02-12T08:57:28.634Z,1020.07
2017-02-12T08:58:28.561Z,1020.1
2017-02-12T08:59:28.576Z,1020.09
2017-02-12T09:00:28.517Z,1020.19
2017-02-12T09:01:28.489Z,1020.21
2017-02-12T09:02:28.456Z,1020.11
2017-02-12T09:03:28.428Z,1020.1
2017-02-12T09:04:28.407Z,1020.17
2017-02-12T09:05:28.377Z,1020.19
2017-02-12T09:06:28.357Z,1020.19
2017-02-12T09:07:28.325Z,1020.19
2017-02-12T09:08:28.296Z,1020.17
2017-02-12T09:09:28.276Z,1020.16
2017-02-12T09:10:28.245Z,1020.24
2017-02-12T09:11:28.219Z,1020.21
2017-02-12T09:12:28.194Z,1020.21
2017-02-12T09:13:28.162Z,1020.13
2017-02-12T09:14:28.144Z,1020.26
2017-02-12T09:15:28.109Z,1020.29
2017-02-12T09:16:28.083Z,1020.3
2017-02-12T09:17:28.060Z,1020.36
2017-02-12T09:18:28.030Z,1020.26
2017-02-12T09:19:28.012Z,1020.32
2017-02-12T09:20:27.976Z,1020.39
2017-02-12T09:21:27.948Z,1020.37
2017-02-12T09:22:27.921Z,1020.32
2017-02-12T09:23:27.897Z,1020.42
2017-02-12T09:24:27.869Z,1020.4
2017-02-12T09:25:27.849Z,1020.41
2017-02-12T09:26:27.816Z,1020.39
2017-02-12T09:27:27.797Z,1020.41
2017-02-12T09:28:27.765Z,1020.46
2017-02-12T09:29:27.735Z,1020.51
2017-02-12T09:30:27.709Z,1020.54
2017-02-12T09:31:27.681Z,1020.5
2017-02-12T09:32:27.656Z,1020.49
2017-02-12T09:33:27.630Z,1020.6
2017-02-12T09:34:27.605Z,1020.54
2017-02-12T09:35:27.581Z,1020.55
2017-02-12T09:36:27.559Z,1020.54
2017-02-12T09:37:27.523Z,1020.51
2017-02-12T09:38:27.499Z,1020.52
2017-02-12T09:39:27.474Z,1020.45
2017-02-12T09:40:27.448Z,1020.5
2017-02-12T09:41:27.424Z,1020.57
2017-02-12T09:42:27.395Z,1020.6
2017-02-12T09:43:27.377Z,1020.58
2017-02-12T09:44:27.345Z,1020.54
2017-02-12T09:45:27.326Z,1020.61
2017-02-12T09:46:27.293Z,1020.58
2017-02-12T09:47:27.273Z,1020.59
2017-02-12T09:48:27.244Z,1020.56
2017-02-12T09:49:27.223Z,1020.6
2017-02-12T09:50:27.192Z,1020.58
2017-02-12T09:51:27.171Z,1020.59
2017-02-12T09:52:27.141Z,1020.62
2017-02-12T09:53:27.123Z,1020.68
2017-02-12T09:54:27.092Z,1020.62
2017-02-12T09:55:27.067Z,1020.6
2017-02-12T09:56:27.042Z,1020.65
2017-02-12T09:57:27.020Z,1020.73
2017-02-12T09:58:26.997Z,1020.71
2017-02-12T09:59:26.967Z,1020.72
2017-02-12T10:00:26.944Z,1020.73
2017-02-12T10:01:26.917Z,1020.74
2017-02-12T10:02:26.900Z,1020.77
2017-02-12T10:03:26.870Z,1020.77
2017-02-12T10:04:26.843Z,1020.77
2017-02-12T10:05:26.826Z,1020.78
2017-02-12T10:06:26.799Z,1020.81
2017-02-12T10:07:26.766Z,1020.73
2017-02-12T10:08:26.741Z,1020.77
2017-02-12T10:09:26.720Z,1020.73
2017-02-12T10:10:26.696Z,1020.83
2017-02-12T10:11:26.673Z,1020.8
2017-02-12T10:12:26.643Z,1020.81
2017-02-12T10:13:26.619Z,1020.91
2017-02-12T10:14:26.599Z,1020.99
2017-02-12T10:15:26.569Z,1020.99
2017-02-12T10:16:26.545Z,1021.03
2017-02-12T10:17:26.524Z,1021.08
2017-02-12T10:18:26.499Z,1021.09
2017-02-12T10:19:26.516Z,1021.16
2017-02-12T10:20:26.465Z,1021.13
2017-02-12T10:21:26.425Z,1021.12
2017-02-12T10:22:26.401Z,1021.12
2017-02-12T10:23:26.375Z,1021.18
2017-02-12T10:24:26.355Z,1021.18
2017-02-12T10:25:26.324Z,1021.16
2017-02-12T10:26:26.299Z,1021.2
2017-02-12T10:27:26.281Z,1021.2
2017-02-12T10:28:26.263Z,1021.2
2017-02-12T10:29:26.240Z,1021.21
2017-02-12T10:30:26.205Z,1021.19
2017-02-12T10:31:26.180Z,1021.24
2017-02-12T10:32:26.162Z,1021.25
2017-02-12T10:33:26.139Z,1021.21
2017-02-12T10:34:26.112Z,1021.25
2017-02-12T10:35:26.086Z,1021.2
2017-02-12T10:36:26.069Z,1021.22
2017-02-12T10:37:26.039Z,1021.26
2017-02-12T10:38:26.022Z,1021.28
2017-02-12T10:39:25.998Z,1021.29
2017-02-12T10:40:25.975Z,1021.33
2017-02-12T10:41:25.953Z,1021.31
2017-02-12T10:42:25.930Z,1021.32
2017-02-12T10:43:25.915Z,1021.28
2017-02-12T10:44:25.880Z,1021.31
2017-02-12T10:45:25.875Z,1021.28
2017-02-12T10:46:25.838Z,1021.38
2017-02-12T10:47:25.818Z,1021.38
2017-02-12T10:48:25.811Z,1021.4
2017-02-12T10:49:25.782Z,1021.38
2017-02-12T10:50:25.758Z,1021.35
2017-02-12T10:51:25.729Z,1021.3
2017-02-12T10:52:25.710Z,1021.34
2017-02-12T10:53:25.689Z,1021.35
2017-02-12T10:54:25.670Z,1021.37
2017-02-12T10:55:25.651Z,1021.4
2017-02-12T10:56:25.627Z,1021.46
2017-02-12T10:57:25.606Z,1021.49
2017-02-12T10:58:25.580Z,1021.46
2017-02-12T10:59:25.554Z,1021.52
2017-02-12T11:00:25.546Z,1021.6
2017-02-12T11:01:25.514Z,1021.62
2017-02-12T11:02:25.495Z,1021.51
2017-02-12T11:03:25.469Z,1021.43
2017-02-12T11:04:25.453Z,1021.46
2017-02-12T11:05:25.428Z,1021.56
2017-02-12T11:06:25.408Z,1021.5
2017-02-12T11:07:25.393Z,1021.49
2017-02-12T11:08:25.373Z,1021.55
2017-02-12T11:09:25.351Z,1021.61
2017-02-12T11:10:25.320Z,1021.6
2017-02-12T11:11:25.299Z,1021.62
2017-02-12T11:12:25.348Z,1021.6
2017-02-12T11:13:25.258Z,1021.68
2017-02-12T11:14:25.247Z,1021.57
2017-02-12T11:15:25.219Z,1021.57
2017-02-12T11:16:25.206Z,1021.59
2017-02-12T11:17:25.179Z,1021.62
2017-02-12T11:18:25.167Z,1021.58
2017-02-12T11:19:25.136Z,1021.65
2017-02-12T11:20:25.125Z,1021.62
2017-02-12T11:21:25.103Z,1021.64
2017-02-12T11:22:25.107Z,1021.62
2017-02-12T11:23:25.064Z,1021.66
2017-02-12T11:24:25.035Z,1021.66
2017-02-12T11:25:25.024Z,1021.7
2017-02-12T11:26:24.998Z,1021.71
2017-02-12T11:27:24.972Z,1021.62
2017-02-12T11:28:24.951Z,1021.66
2017-02-12T11:29:24.942Z,1021.64
2017-02-12T11:30:24.912Z,1021.58
2017-02-12T11:31:24.899Z,1021.63
2017-02-12T11:32:24.873Z,1021.66
2017-02-12T11:33:24.848Z,1021.64
2017-02-12T11:34:24.827Z,1021.66
2017-02-12T11:35:24.808Z,1021.65
2017-02-12T11:36:24.788Z,1021.56
2017-02-12T11:37:24.766Z,1021.63
2017-02-12T11:38:24.746Z,1021.59
2017-02-12T11:39:24.729Z,1021.55
2017-02-12T11:40:24.710Z,1021.63
2017-02-12T11:41:24.686Z,1021.58
2017-02-12T11:42:24.664Z,1021.56
2017-02-12T11:43:24.645Z,1021.58
2017-02-12T11:44:24.624Z,1021.58
2017-02-12T11:45:24.612Z,1021.62
2017-02-12T11:46:24.592Z,1021.68
2017-02-12T11:47:24.571Z,1021.61
2017-02-12T11:48:24.546Z,1021.64
2017-02-12T11:49:24.529Z,1021.61
2017-02-12T11:50:24.508Z,1021.56
2017-02-12T11:51:24.490Z,1021.63
2017-02-12T11:52:24.468Z,1021.55
2017-02-12T11:53:24.448Z,1021.54
2017-02-12T11:54:24.439Z,1021.56
2017-02-12T11:55:24.412Z,1021.59
2017-02-12T11:56:24.398Z,1021.61
2017-02-12T11:57:24.376Z,1021.58
2017-02-12T11:58:24.358Z,1021.58
2017-02-12T11:59:24.335Z,1021.55
2017-02-12T12:00:24.314Z,1021.53
2017-02-12T12:01:24.295Z,1021.64
2017-02-12T12:02:24.277Z,1021.55
2017-02-12T12:03:24.264Z,1021.59
2017-02-12T12:04:24.243Z,1021.64
2017-02-12T12:05:24.221Z,1021.62
2017-02-12T12:06:24.201Z,1021.6
2017-02-12T12:07:24.181Z,1021.63
2017-02-12T12:08:24.160Z,1021.61